Time;durP1;ratioP1;P1;durP2;ratioP2;P2;SDS_P1;SDS_P2;PMS_P1;PMS_P2;Temp;Humidity;BMP_temperature;BMP_pressure;BME280_temperature;BME280_humidity;BME280_pressure;Samples;Min_cycle;Max_cycle;Signal;HPM_P1;HPM_P2
2022/07/28 00:00:42;;;;;;;6.28;1.15;;;;;;;16.99;69.14;101576.22;5038687;28;20088;-71
2022/07/28 00:03:09;;;;;;;6.60;1.30;;;;;;;16.98;69.17;101572.63;5048449;28;20079;-73
2022/07/28 00:05:36;;;;;;;3.40;1.60;;;;;;;16.98;69.96;101580.22;5045065;28;20498;-74
2022/07/28 00:08:03;;;;;;;5.43;1.58;;;;;;;16.96;70.08;101588.22;5043131;28;20054;-74
2022/07/28 00:10:31;;;;;;;4.88;1.35;;;;;;;16.95;71.26;101583.88;5033261;28;20132;-74
2022/07/28 00:12:58;;;;;;;6.70;1.50;;;;;;;16.88;72.32;101575.56;5044840;28;20902;-75
2022/07/28 00:15:25;;;;;;;7.45;1.83;;;;;;;16.85;71.53;101570.81;5033028;28;20049;-75
2022/07/28 00:17:52;;;;;;;3.40;1.30;;;;;;;16.87;71.95;101574.78;5036021;28;20057;-73
2022/07/28 00:20:19;;;;;;;4.45;1.50;;;;;;;16.89;71.70;101574.34;5041025;28;20862;-77
2022/07/28 00:22:46;;;;;;;4.07;1.60;;;;;;;16.86;71.95;101573.19;5032362;28;20108;-72
2022/07/28 00:25:14;;;;;;;6.00;1.73;;;;;;;16.87;71.91;101571.97;5042542;28;20792;-75
2022/07/28 00:27:40;;;;;;;3.80;1.70;;;;;;;16.87;72.94;101574.00;5038230;28;20059;-74
2022/07/28 00:30:07;;;;;;;6.32;1.38;;;;;;;16.85;71.74;101571.63;5039181;28;20052;-73
2022/07/28 00:32:34;;;;;;;10.18;1.60;;;;;;;16.81;72.11;101562.47;5042570;28;20052;-76
2022/07/28 00:35:01;;;;;;;3.88;1.35;;;;;;;16.81;72.83;101568.06;5038589;28;20088;-74
2022/07/28 00:37:28;;;;;;;6.80;1.73;;;;;;;16.80;74.01;101565.69;5037470;28;20057;-75
2022/07/28 00:39:54;;;;;;;4.60;2.08;;;;;;;16.70;74.59;101564.63;5039377;28;20048;-74
2022/07/28 00:42:21;;;;;;;10.30;2.15;;;;;;;16.66;75.00;101561.09;5037087;28;20049;-73
2022/07/28 00:44:48;;;;;;;6.35;1.30;;;;;;;16.65;74.47;101564.28;5038402;28;20049;-72
2022/07/28 00:47:14;;;;;;;1.98;1.25;;;;;;;16.66;74.26;101557.47;5028821;28;20047;-74
2022/07/28 00:49:43;;;;;;;5.95;1.90;;;;;;;16.66;75.32;101560.28;5037231;28;20086;-71
2022/07/28 00:52:11;;;;;;;6.05;1.35;;;;;;;16.64;75.95;101557.91;5031167;28;20874;-73
2022/07/28 00:54:38;;;;;;;7.88;1.75;;;;;;;16.66;75.62;101561.09;5035468;28;20745;-73
2022/07/28 00:57:04;;;;;;;5.68;1.45;;;;;;;16.57;75.22;101552.41;5031699;28;20223;-74
2022/07/28 00:59:31;;;;;;;7.68;1.77;;;;;;;16.58;75.48;101554.00;5038536;28;20992;-73
2022/07/28 01:02:00;;;;;;;4.10;1.30;;;;;;;16.56;75.59;101558.41;5034205;28;20048;-74
2022/07/28 01:04:28;;;;;;;9.23;2.17;;;;;;;16.54;75.91;101558.06;5044221;28;20056;-71
2022/07/28 01:07:31;;;;;;;4.72;1.55;;;;;;;16.47;78.18;101547.72;5038912;28;20048;-73
2022/07/28 01:10:07;;;;;;;5.22;1.60;;;;;;;16.48;78.41;101549.34;5038232;28;20045;-74
2022/07/28 01:12:33;;;;;;;;;;;;;;;16.48;78.88;101545.75;5049547;28;20050;-71
2022/07/28 01:15:05;;;;;;;3.88;1.35;;;;;;;16.48;76.96;101549.34;5033460;28;19951;-72
2022/07/28 01:17:45;;;;;;;7.55;1.92;;;;;;;16.42;78.36;101544.59;5032081;28;21097;-75
2022/07/28 01:20:17;;;;;;;4.63;2.22;;;;;;;16.38;78.45;101557.81;5033793;28;20526;-73
2022/07/28 01:23:11;;;;;;;7.05;1.67;;;;;;;16.36;79.41;101552.63;5043862;28;20040;-72
2022/07/28 01:26:12;;;;;;;10.05;1.60;;;;;;;16.31;79.61;101550.31;5037117;28;20045;-74
2022/07/28 01:29:01;;;;;;;4.40;1.60;;;;;;;16.28;80.38;101547.53;5040270;28;20048;-74
2022/07/28 01:31:37;;;;;;;5.60;1.80;;;;;;;16.28;79.46;101550.34;5027630;28;20046;-76
2022/07/28 01:34:05;;;;;;;;;;;;;;;16.27;81.07;101545.97;5034472;28;20051;-74
2022/07/28 01:36:38;;;;;;;4.88;1.40;;;;;;;16.20;79.11;101537.66;5040255;28;19920;-74
2022/07/28 01:39:05;;;;;;;10.77;1.70;;;;;;;16.18;79.64;101546.47;5037404;28;20172;-72
2022/07/28 01:41:33;;;;;;;6.43;1.70;;;;;;;16.13;80.40;101532.94;5035785;28;20948;-72
2022/07/28 01:44:04;;;;;;;5.68;1.60;;;;;;;16.14;80.31;101530.94;5039780;28;20045;-72
2022/07/28 01:46:32;;;;;;;5.63;1.77;;;;;;;16.13;80.79;101532.94;5047756;28;20072;-73
2022/07/28 01:49:01;;;;;;;6.00;1.77;;;;;;;16.07;81.30;101533.81;5040959;28;20415;-74
2022/07/28 01:51:29;;;;;;;5.20;1.63;;;;;;;16.06;81.01;101533.03;5041472;28;20126;-75
2022/07/28 01:53:58;;;;;;;4.65;1.50;;;;;;;16.03;80.87;101535.88;5043547;28;20865;-74
2022/07/28 01:56:29;;;;;;;9.38;1.70;;;;;;;16.02;80.68;101537.03;5038487;28;20048;-73
2022/07/28 01:58:58;;;;;;;5.22;1.60;;;;;;;16.02;81.19;101537.03;5061605;28;20135;-72
2022/07/28 02:01:26;;;;;;;11.45;1.92;;;;;;;16.01;81.55;101536.28;5058196;28;20059;-74
2022/07/28 02:03:55;;;;;;;8.40;1.90;;;;;;;15.97;81.64;101529.13;5060383;28;20048;-70
2022/07/28 02:06:23;;;;;;;6.40;1.65;;;;;;;15.95;82.19;101521.19;5057631;28;20049;-69
2022/07/28 02:08:53;;;;;;;7.07;1.75;;;;;;;15.89;83.17;101522.06;5064054;28;20132;-72
2022/07/28 02:11:38;;;;;;;9.10;2.10;;;;;;;15.88;82.69;101529.63;5065517;28;20058;-69
2022/07/28 02:14:12;;;;;;;2.97;1.60;;;;;;;15.85;83.29;101524.06;5055163;28;20040;-71
2022/07/28 02:16:43;;;;;;;8.65;1.80;;;;;;;15.80;83.50;101522.53;5065417;28;20053;-70
2022/07/28 02:19:12;;;;;;;11.32;2.22;;;;;;;15.73;83.38;101525.41;5058340;28;20087;-73
2022/07/28 02:21:39;;;;;;;4.18;1.80;;;;;;;15.70;85.14;101511.47;5065255;28;20683;-71
2022/07/28 02:24:08;;;;;;;5.72;2.00;;;;;;;15.67;84.89;101520.66;5066765;28;20489;-69
2022/07/28 02:26:40;;;;;;;7.07;1.45;;;;;;;15.60;85.38;101512.34;5054235;28;20047;-72
2022/07/28 02:29:12;;;;;;;10.05;1.90;;;;;;;15.62;86.30;101519.09;5063429;28;20048;-69
2022/07/28 02:32:16;;;;;;;8.18;1.60;;;;;;;15.61;86.65;101517.53;5058967;28;20751;-72
2022/07/28 02:34:59;;;;;;;8.88;1.85;;;;;;;15.59;85.51;101516.38;5057647;28;20048;-70
2022/07/28 02:37:33;;;;;;;8.98;1.98;;;;;;;15.55;85.69;101510.03;5064756;28;20040;-69
2022/07/28 02:40:02;;;;;;;6.35;1.92;;;;;;;15.52;86.60;101508.84;5061315;28;20167;-70
2022/07/28 02:42:32;;;;;;;6.80;1.95;;;;;;;15.50;86.64;101509.25;5057800;28;20048;-71
2022/07/28 02:45:02;;;;;;;11.00;2.38;;;;;;;15.47;87.96;101503.72;5061402;28;20143;-72
2022/07/28 02:47:33;;;;;;;8.00;1.88;;;;;;;15.45;87.58;101501.31;5060257;28;20044;-70
2022/07/28 02:50:02;;;;;;;5.35;1.55;;;;;;;15.41;87.93;101495.00;5061952;28;20052;-72
2022/07/28 02:52:29;;;;;;;12.68;2.42;;;;;;;15.35;87.73;101495.78;5062114;28;20049;-70
2022/07/28 02:54:57;;;;;;;5.00;1.80;;;;;;;15.33;88.67;101496.22;5064024;28;20383;-70
2022/07/28 02:57:25;;;;;;;6.03;1.73;;;;;;;15.29;88.67;101491.88;5057988;28;20156;-75
2022/07/28 02:59:53;;;;;;;8.98;2.10;;;;;;;15.26;89.89;101490.69;5056339;28;20053;-70
2022/07/28 03:02:21;;;;;;;7.03;1.95;;;;;;;15.25;89.31;101482.72;5053273;28;20056;-70
2022/07/28 03:04:57;;;;;;;3.70;1.80;;;;;;;15.25;89.66;101491.91;5061578;28;20049;-71
2022/07/28 03:07:29;;;;;;;8.23;2.33;;;;;;;15.20;90.53;101495.16;5054718;28;20473;-71
2022/07/28 03:09:56;;;;;;;5.63;1.73;;;;;;;15.21;89.64;101493.94;5064522;28;20048;-75
2022/07/28 03:12:23;;;;;;;4.93;1.98;;;;;;;15.19;90.45;101499.09;5064110;28;20139;-71
2022/07/28 03:14:50;;;;;;;12.18;2.03;;;;;;;15.15;90.27;101500.34;5069101;28;20091;-74
2022/07/28 03:17:18;;;;;;;6.82;2.13;;;;;;;15.15;90.27;101508.69;5052326;28;20047;-70
2022/07/28 03:19:44;;;;;;;5.53;1.80;;;;;;;15.14;90.49;101507.13;5061697;28;20052;-72
2022/07/28 03:22:11;;;;;;;6.35;1.92;;;;;;;15.13;90.68;101503.53;5071729;28;20469;-69
2022/07/28 03:24:42;;;;;;;6.57;1.88;;;;;;;15.13;90.83;101500.75;5055990;28;20092;-69
2022/07/28 03:27:24;;;;;;;9.00;1.70;;;;;;;15.11;91.60;101500.38;5060641;28;20043;-72
2022/07/28 03:30:02;;;;;;;6.80;2.13;;;;;;;15.11;91.68;101505.94;5065210;28;20063;-72
2022/07/28 03:32:33;;;;;;;6.97;1.90;;;;;;;15.07;90.57;101502.41;5057927;28;20053;-74
2022/07/28 03:35:00;;;;;;;6.40;1.90;;;;;;;15.02;91.51;101502.81;5064485;28;20049;-71
2022/07/28 03:37:32;;;;;;;4.10;1.98;;;;;;;14.99;92.24;101505.66;5059747;28;20127;-74
2022/07/28 03:39:59;;;;;;;10.85;2.17;;;;;;;14.99;91.24;101502.84;5056184;28;20051;-74
2022/07/28 03:42:27;;;;;;;7.43;1.98;;;;;;;14.98;91.87;101496.47;5062100;28;20118;-71
2022/07/28 03:44:55;;;;;;;9.05;2.30;;;;;;;14.97;90.88;101496.88;5063373;28;20135;-72
2022/07/28 03:47:23;;;;;;;7.60;1.92;;;;;;;14.95;92.17;101502.88;5061024;28;20298;-71
2022/07/28 03:49:49;;;;;;;10.27;2.50;;;;;;;14.92;92.55;101500.13;5060491;28;20501;-73
2022/07/28 03:52:17;;;;;;;6.68;1.95;;;;;;;14.91;92.15;101507.69;5060001;28;20045;-71
2022/07/28 03:54:44;;;;;;;8.77;2.45;;;;;;;14.94;92.30;101506.06;5062905;28;20571;-70
2022/07/28 03:57:12;;;;;;;13.65;2.63;;;;;;;14.89;92.83;101504.50;5052970;28;20078;-73
2022/07/28 03:59:39;;;;;;;11.98;2.00;;;;;;;14.88;92.44;101514.06;5050969;28;20119;-73
2022/07/28 04:02:05;;;;;;;10.07;2.67;;;;;;;14.82;92.59;101504.53;5061575;28;20058;-73
2022/07/28 04:04:32;;;;;;;9.27;2.13;;;;;;;14.86;92.60;101510.91;5065818;28;20060;-71
2022/07/28 04:06:59;;;;;;;9.20;2.03;;;;;;;14.88;92.99;101508.50;5057392;28;20583;-72
2022/07/28 04:09:25;;;;;;;14.38;2.45;;;;;;;14.90;92.96;101508.88;5057427;28;20140;-70
2022/07/28 04:11:52;;;;;;;7.13;1.92;;;;;;;14.89;93.50;101515.63;5058743;28;20045;-75
2022/07/28 04:14:19;;;;;;;5.53;1.70;;;;;;;14.89;93.43;101514.88;5063392;28;20061;-73
2022/07/28 04:16:45;;;;;;;11.73;2.53;;;;;;;14.90;93.83;101506.09;5057838;28;20494;-73
2022/07/28 04:19:13;;;;;;;6.90;2.10;;;;;;;14.90;93.17;101508.88;5061967;28;20388;-76
2022/07/28 04:21:39;;;;;;;4.63;1.73;;;;;;;14.89;93.72;101510.06;5063500;28;20059;-71
2022/07/28 04:24:09;;;;;;;11.50;2.20;;;;;;;14.87;93.88;101504.13;5061013;28;20127;-73
2022/07/28 04:26:36;;;;;;;6.90;2.28;;;;;;;14.84;94.20;101499.38;5053785;28;20108;-73
2022/07/28 04:29:03;;;;;;;6.32;1.98;;;;;;;14.86;94.39;101499.75;5057293;28;20076;-71
2022/07/28 04:31:30;;;;;;;5.65;2.03;;;;;;;14.86;94.65;101496.16;5052220;28;20048;-72
2022/07/28 04:33:56;;;;;;;8.02;2.08;;;;;;;14.81;94.59;101493.81;5055573;28;20049;-72
2022/07/28 04:36:24;;;;;;;12.70;2.60;;;;;;;14.83;95.19;101500.56;5053834;28;20133;-71
2022/07/28 04:38:51;;;;;;;9.27;2.10;;;;;;;14.85;95.05;101497.38;5061409;28;20454;-71
2022/07/28 04:41:17;;;;;;;10.98;2.40;;;;;;;14.84;95.14;101495.78;5062736;28;20140;-71
2022/07/28 04:43:44;;;;;;;7.78;2.10;;;;;;;14.86;95.53;101502.56;5051889;28;20136;-76
2022/07/28 04:46:10;;;;;;;13.57;2.38;;;;;;;14.85;96.11;101506.50;5053160;28;20140;-77
2022/07/28 04:48:40;;;;;;;10.38;2.15;;;;;;;14.87;96.15;101501.34;5051000;28;20100;-71
2022/07/28 04:51:07;;;;;;;7.40;2.28;;;;;;;14.87;96.09;101503.31;5054081;28;20509;-75
2022/07/28 04:53:34;;;;;;;7.53;2.17;;;;;;;14.90;96.12;101506.09;5066054;28;20135;-71
2022/07/28 04:56:01;;;;;;;8.95;2.35;;;;;;;14.89;96.19;101510.06;5064732;28;20051;-74
2022/07/28 04:58:28;;;;;;;9.95;2.45;;;;;;;14.89;96.51;101510.06;5054364;28;20063;-76
2022/07/28 05:00:56;;;;;;;8.95;2.47;;;;;;;14.89;96.62;101506.50;5059683;28;20053;-70
2022/07/28 05:03:23;;;;;;;12.32;2.67;;;;;;;14.95;95.42;101510.47;5055943;28;20480;-73
2022/07/28 05:05:50;;;;;;;9.00;1.95;;;;;;;15.01;95.97;101517.16;5060935;28;20067;-72
2022/07/28 05:08:20;;;;;;;8.15;2.70;;;;;;;15.04;96.07;101513.56;5062700;28;20130;-72
2022/07/28 05:10:50;;;;;;;10.00;2.10;;;;;;;15.03;96.22;101504.44;5054678;28;20076;-70
2022/07/28 05:13:17;;;;;;;9.50;2.47;;;;;;;15.11;96.18;101511.53;5054879;28;20063;-70
2022/07/28 05:15:44;;;;;;;5.95;2.00;;;;;;;15.12;95.28;101501.94;5055643;28;20041;-71
2022/07/28 05:18:10;;;;;;;7.28;2.28;;;;;;;15.11;95.16;101500.38;5051135;28;20049;-72
2022/07/28 05:20:37;;;;;;;8.73;2.10;;;;;;;15.16;95.16;101507.50;5058210;28;20131;-70
2022/07/28 05:23:03;;;;;;;7.03;1.80;;;;;;;15.20;95.18;101509.09;5060381;28;20144;-73
2022/07/28 05:25:30;;;;;;;11.63;2.15;;;;;;;15.25;94.47;101503.06;5049790;28;20650;-70
2022/07/28 05:27:56;;;;;;;11.10;2.05;;;;;;;15.36;94.38;101503.78;5048943;28;20049;-70
2022/07/28 05:30:23;;;;;;;15.45;2.42;;;;;;;15.43;94.11;101502.94;5062955;28;20086;-71
2022/07/28 05:32:50;;;;;;;7.60;1.90;;;;;;;15.49;93.30;101507.66;5061158;28;20440;-74
2022/07/28 05:35:16;;;;;;;5.63;1.90;;;;;;;15.57;93.32;101507.59;5071380;28;20501;-70
2022/07/28 05:37:43;;;;;;;8.32;2.45;;;;;;;15.65;92.93;101511.94;5056601;28;20049;-71
2022/07/28 05:40:13;;;;;;;9.63;2.28;;;;;;;15.72;91.89;101512.63;5048151;28;20073;-71
2022/07/28 05:42:43;;;;;;;12.85;2.88;;;;;;;15.76;91.06;101515.41;5063639;28;20049;-74
2022/07/28 05:45:11;;;;;;;8.80;2.10;;;;;;;15.81;91.25;101512.16;5058172;28;20087;-71
2022/07/28 05:47:42;;;;;;;9.93;2.42;;;;;;;15.88;90.81;101515.66;5064459;28;20063;-73
2022/07/28 05:50:09;;;;;;;8.02;2.22;;;;;;;15.92;90.75;101515.63;5056716;28;20044;-71
2022/07/28 05:52:36;;;;;;;9.23;2.28;;;;;;;15.98;90.23;101508.38;5057720;28;20091;-69
2022/07/28 05:55:05;;;;;;;6.93;2.47;;;;;;;16.04;90.19;101507.53;5055010;28;20094;-70
2022/07/28 05:57:31;;;;;;;11.68;2.67;;;;;;;16.08;89.91;101515.84;5051802;28;20053;-71
2022/07/28 05:59:58;;;;;;;10.90;2.47;;;;;;;16.15;89.64;101512.97;5058244;28;20476;-70
2022/07/28 06:02:25;;;;;;;9.50;2.78;;;;;;;16.15;89.12;101499.81;5061157;28;20139;-74
2022/07/28 06:04:51;;;;;;;14.95;3.08;;;;;;;16.24;89.11;101500.13;5060667;28;20044;-70
2022/07/28 06:07:18;;;;;;;6.70;2.35;;;;;;;16.29;88.86;101508.03;5060426;28;20072;-70
2022/07/28 06:09:44;;;;;;;8.23;2.22;;;;;;;16.29;88.75;101507.22;5056342;28;20139;-67
2022/07/28 06:12:11;;;;;;;7.55;2.33;;;;;;;16.33;88.50;101516.38;5061615;28;20059;-72
2022/07/28 06:14:37;;;;;;;6.72;2.20;;;;;;;16.34;88.04;101510.38;5054036;28;20540;-73
2022/07/28 06:17:04;;;;;;;9.60;2.47;;;;;;;16.36;88.38;101513.53;5060253;28;20519;-76
2022/07/28 06:19:30;;;;;;;10.23;2.30;;;;;;;16.43;88.46;101512.69;5049784;28;20071;-71
2022/07/28 06:21:57;;;;;;;7.18;2.15;;;;;;;16.48;88.22;101513.03;5053374;28;20559;-73
2022/07/28 06:24:24;;;;;;;9.65;2.28;;;;;;;16.57;88.06;101504.91;5053882;28;20147;-74
2022/07/28 06:26:51;;;;;;;12.48;2.78;;;;;;;16.66;88.08;101505.19;5060977;28;20178;-73
2022/07/28 06:29:19;;;;;;;8.45;2.55;;;;;;;16.79;87.39;101505.41;5052270;28;20367;-74
2022/07/28 06:31:46;;;;;;;10.00;2.70;;;;;;;16.85;86.97;101500.94;5048436;28;20084;-75
2022/07/28 06:34:12;;;;;;;8.35;2.50;;;;;;;16.91;85.95;101502.06;5051426;28;20517;-71
2022/07/28 06:36:40;;;;;;;4.63;1.83;;;;;;;17.00;85.71;101497.50;5051059;28;20446;-77
2022/07/28 06:39:07;;;;;;;7.78;2.40;;;;;;;17.01;84.95;101496.28;5051518;28;20083;-72
2022/07/28 06:41:34;;;;;;;6.57;2.35;;;;;;;17.17;84.67;101502.03;5055550;28;20103;-71
2022/07/28 06:44:00;;;;;;;4.20;1.85;;;;;;;17.21;84.16;101502.00;5060003;28;20044;-73
2022/07/28 06:46:27;;;;;;;5.72;1.73;;;;;;;17.28;82.53;101501.88;5060589;28;20076;-72
2022/07/28 06:48:53;;;;;;;7.95;2.22;;;;;;;17.35;82.04;101512.97;5058117;28;20525;-75
2022/07/28 06:51:22;;;;;;;7.80;1.73;;;;;;;17.37;82.01;101500.13;5051112;28;20053;-75
2022/07/28 06:53:48;;;;;;;6.35;2.50;;;;;;;17.46;81.62;101497.63;5057852;28;20064;-75
2022/07/28 06:56:15;;;;;;;10.57;2.33;;;;;;;17.53;80.32;101508.69;5062810;28;20049;-75
2022/07/28 06:58:42;;;;;;;10.85;2.60;;;;;;;17.59;80.64;101501.34;5049690;28;20049;-71
2022/07/28 07:01:13;;;;;;;7.50;2.20;;;;;;;17.70;79.72;101507.59;5053410;28;20048;-77
2022/07/28 07:03:41;;;;;;;9.77;2.13;;;;;;;17.73;78.63;101501.13;5059916;28;20052;-71
2022/07/28 07:06:09;;;;;;;6.00;1.75;;;;;;;17.75;77.71;101503.47;5063519;28;20053;-73
2022/07/28 07:08:36;;;;;;;8.85;1.90;;;;;;;17.83;77.51;101507.75;5053875;28;20037;-74
2022/07/28 07:11:02;;;;;;;9.50;1.95;;;;;;;17.94;77.35;101508.34;5055049;28;20103;-77
2022/07/28 07:13:29;;;;;;;7.30;1.95;;;;;;;17.99;76.36;101502.25;5056989;28;20143;-75
2022/07/28 07:15:56;;;;;;;6.15;1.98;;;;;;;18.05;76.41;101494.91;5061596;28;20493;-74
2022/07/28 07:18:22;;;;;;;8.65;2.38;;;;;;;18.12;75.52;101494.78;5054714;28;20139;-73
2022/07/28 07:20:49;;;;;;;6.53;1.98;;;;;;;18.20;75.27;101498.22;5060202;28;20522;-74
2022/07/28 07:23:16;;;;;;;3.72;1.17;;;;;;;18.28;74.57;101499.66;5064603;28;20096;-76
2022/07/28 07:25:42;;;;;;;8.48;1.90;;;;;;;18.36;74.24;101493.50;5061866;28;20143;-72
2022/07/28 07:28:09;;;;;;;10.60;1.65;;;;;;;18.45;73.17;101502.13;5057562;28;20040;-79
2022/07/28 07:30:36;;;;;;;5.07;1.58;;;;;;;18.58;73.09;101496.66;5059801;28;20062;-79
2022/07/28 07:33:02;;;;;;;7.63;1.83;;;;;;;18.72;73.08;101494.34;5064559;28;20052;-72
2022/07/28 07:35:33;;;;;;;4.82;1.55;;;;;;;18.83;72.23;101494.88;5068271;28;20079;-77
2022/07/28 07:38:00;;;;;;;4.72;1.65;;;;;;;18.95;71.83;101493.41;5061905;28;20072;-73
2022/07/28 07:40:27;;;;;;;4.07;1.63;;;;;;;19.07;71.14;101504.75;5062819;28;20211;-73
2022/07/28 07:42:53;;;;;;;7.97;1.67;;;;;;;19.11;70.14;101490.66;5064691;28;20166;-80
2022/07/28 07:45:20;;;;;;;10.93;2.03;;;;;;;19.14;70.67;101492.56;5064144;28;20080;-75
2022/07/28 07:47:46;;;;;;;8.68;1.58;;;;;;;19.15;69.75;101488.53;5065102;28;20069;-72
2022/07/28 07:50:13;;;;;;;5.80;1.77;;;;;;;19.21;69.30;101490.41;5058012;28;20076;-79
2022/07/28 07:52:40;;;;;;;8.80;2.35;;;;;;;19.26;69.19;101469.44;5055788;28;20159;-80
2022/07/28 07:55:07;;;;;;;4.65;1.65;;;;;;;19.38;69.13;101475.16;5064374;28;20517;-73
2022/07/28 07:57:34;;;;;;;11.13;2.33;;;;;;;19.38;68.02;101479.97;5064936;28;20114;-73
2022/07/28 08:00:00;;;;;;;5.82;1.90;;;;;;;19.46;67.84;101481.38;5063721;28;20114;-73
2022/07/28 08:02:27;;;;;;;5.65;1.80;;;;;;;19.51;68.23;101478.81;5062407;28;20400;-74
2022/07/28 08:04:55;;;;;;;5.40;1.58;;;;;;;19.59;67.94;101482.25;5062728;28;20102;-72
2022/07/28 08:07:22;;;;;;;8.57;2.35;;;;;;;19.64;67.36;101474.06;5063629;28;20052;-73
2022/07/28 08:09:49;;;;;;;4.57;1.50;;;;;;;19.76;67.02;101472.56;5060852;28;20044;-76
2022/07/28 08:12:17;;;;;;;6.78;2.17;;;;;;;19.74;65.62;101472.19;5060752;28;20056;-76
2022/07/28 08:14:50;;;;;;;6.45;1.50;;;;;;;19.83;65.85;101472.38;5062534;28;20058;-76
2022/07/28 08:17:17;;;;;;;5.93;1.70;;;;;;;19.81;64.75;101474.84;5060782;28;20745;-73
2022/07/28 08:19:50;;;;;;;16.67;2.13;;;;;;;19.86;65.21;101468.69;5063352;28;20048;-74
2022/07/28 08:22:17;;;;;;;10.40;2.50;;;;;;;19.89;64.84;101470.59;5055979;28;20058;-73
2022/07/28 08:24:43;;;;;;;5.70;1.40;;;;;;;19.96;65.97;101473.22;5060434;28;20171;-70
2022/07/28 08:27:10;;;;;;;7.45;1.75;;;;;;;20.06;65.10;101472.94;5063334;28;20504;-74
2022/07/28 08:29:36;;;;;;;7.88;1.70;;;;;;;20.14;64.97;101465.91;5062273;28;20139;-73
2022/07/28 08:32:03;;;;;;;7.93;1.67;;;;;;;20.22;64.25;101474.91;5058389;28;20088;-73
2022/07/28 08:34:31;;;;;;;10.88;2.30;;;;;;;20.28;63.37;101461.88;5060024;28;20064;-72
2022/07/28 08:37:01;;;;;;;4.85;1.50;;;;;;;20.31;63.14;101467.41;5060874;28;20044;-73
2022/07/28 08:39:30;;;;;;;9.63;1.80;;;;;;;20.41;63.13;101467.56;5060824;28;20570;-71
2022/07/28 08:42:19;;;;;;;7.40;1.67;;;;;;;20.50;62.23;101473.28;5061868;28;20095;-70
2022/07/28 08:45:05;;;;;;;7.85;1.60;;;;;;;20.51;61.04;101466.44;5057804;28;20076;-72
2022/07/28 08:47:34;;;;;;;;;;;;;;;20.68;61.93;101467.94;5058933;28;20508;-73
2022/07/28 08:50:23;;;;;;;11.48;2.25;;;;;;;20.77;60.66;101463.22;5052286;28;20011;-74
2022/07/28 08:52:53;;;;;;;8.95;1.98;;;;;;;20.86;61.02;101468.16;5054974;28;20135;-71
2022/07/28 08:55:24;;;;;;;6.45;1.80;;;;;;;20.92;60.39;101469.94;5051369;28;20436;-70
2022/07/28 08:57:58;;;;;;;5.25;1.67;;;;;;;21.06;60.90;101468.75;5062565;28;20597;-69
2022/07/28 09:00:26;;;;;;;9.18;1.95;;;;;;;21.23;60.25;101468.16;5060345;28;20068;-73
2022/07/28 09:02:53;;;;;;;12.02;1.90;;;;;;;21.28;58.57;101464.00;5057660;28;20470;-70
2022/07/28 09:05:21;;;;;;;7.88;1.98;;;;;;;21.34;58.36;101460.16;5052731;28;20048;-71
2022/07/28 09:07:49;;;;;;;11.25;2.13;;;;;;;21.42;57.94;101457.88;5058128;28;20078;-73
2022/07/28 09:10:20;;;;;;;5.07;1.73;;;;;;;21.42;57.31;101464.31;5054681;28;20057;-75
2022/07/28 09:12:47;;;;;;;3.72;1.45;;;;;;;21.54;57.56;101459.88;5059373;28;20492;-69
2022/07/28 09:15:14;;;;;;;6.57;2.17;;;;;;;21.52;55.53;101456.72;5039240;28;20056;-70
2022/07/28 09:17:41;;;;;;;4.93;1.63;;;;;;;21.59;55.45;101448.84;5044242;28;20139;-72
2022/07/28 09:20:12;;;;;;;6.63;1.60;;;;;;;21.62;54.84;101449.94;5038467;28;20916;-74
2022/07/28 09:23:13;;;;;;;10.70;2.10;;;;;;;21.76;54.28;101455.09;5045814;28;20045;-74
2022/07/28 09:26:07;;;;;;;4.57;1.70;;;;;;;21.92;54.58;101438.03;4971802;28;20064;-71
2022/07/28 09:28:46;;;;;;;5.63;1.20;;;;;;;22.01;53.36;101440.94;5037847;28;20048;-69
2022/07/28 09:31:13;;;;;;;8.43;1.70;;;;;;;22.13;53.94;101438.03;5038812;28;20180;-69
2022/07/28 09:33:52;;;;;;;6.63;1.83;;;;;;;22.22;53.13;101435.28;5041603;28;20084;-70
2022/07/28 09:36:19;;;;;;;7.22;1.92;;;;;;;22.35;53.32;101432.38;5034088;28;20044;-69
2022/07/28 09:38:46;;;;;;;5.00;1.73;;;;;;;22.54;52.50;101425.59;5037748;28;20049;-71
2022/07/28 09:41:13;;;;;;;8.85;1.85;;;;;;;22.60;51.43;101430.19;5038891;28;20162;-70
2022/07/28 09:43:42;;;;;;;7.90;2.00;;;;;;;22.84;51.92;101427.63;5031035;28;20164;-71
2022/07/28 09:46:20;;;;;;;7.55;1.52;;;;;;;22.99;51.23;101431.47;5049170;28;20212;-69
2022/07/28 09:48:57;;;;;;;8.40;1.85;;;;;;;23.10;49.92;101431.81;5036045;28;20049;-71
2022/07/28 09:51:27;;;;;;;6.28;1.52;;;;;;;23.24;49.48;101421.97;5035672;28;20061;-74
2022/07/28 09:54:06;;;;;;;5.40;1.50;;;;;;;23.28;48.32;101412.09;5041327;28;20139;-73
2022/07/28 09:56:33;;;;;;;5.85;1.30;;;;;;;23.26;47.39;101413.84;5045748;28;20185;-75
2022/07/28 09:59:02;;;;;;;8.88;1.83;;;;;;;23.34;48.37;101404.59;5043926;28;20045;-73
2022/07/28 10:01:29;;;;;;;8.00;1.92;;;;;;;23.44;48.09;101397.69;5028509;28;20049;-76
2022/07/28 10:04:02;;;;;;;2.33;1.10;;;;;;;23.50;48.34;101403.50;5041673;28;20156;-73
2022/07/28 10:06:33;;;;;;;5.47;1.75;;;;;;;23.56;47.83;101405.25;5050050;28;20086;-72
2022/07/28 10:09:02;;;;;;;6.10;1.60;;;;;;;23.59;47.38;101407.09;5036461;28;20042;-73
2022/07/28 10:11:30;;;;;;;6.68;1.48;;;;;;;23.60;47.22;101411.53;5032108;28;20469;-73
2022/07/28 10:14:02;;;;;;;9.45;1.63;;;;;;;23.61;46.27;101389.69;5041315;28;20044;-74
2022/07/28 10:16:35;;;;;;;8.70;1.80;;;;;;;23.70;46.67;101396.16;5037965;28;20049;-73
2022/07/28 10:19:04;;;;;;;7.18;1.70;;;;;;;23.81;47.01;101393.63;5044296;28;20756;-74
2022/07/28 10:21:34;;;;;;;4.43;1.60;;;;;;;23.94;46.37;101408.41;5050384;28;20564;-70
2022/07/28 10:24:04;;;;;;;5.93;1.83;;;;;;;24.11;45.51;101403.19;5032708;28;20148;-72
2022/07/28 10:26:36;;;;;;;4.65;1.35;;;;;;;24.25;44.82;101411.00;5047774;28;20049;-69
2022/07/28 10:29:08;;;;;;;9.23;2.00;;;;;;;24.37;44.68;101404.41;5032581;28;20049;-69
2022/07/28 10:31:45;;;;;;;9.30;1.73;;;;;;;24.44;44.81;101407.66;5045362;28;20067;-69
2022/07/28 10:34:20;;;;;;;15.65;2.00;;;;;;;24.46;43.41;101407.97;5040346;28;20063;-77
2022/07/28 10:36:53;;;;;;;6.13;1.60;;;;;;;24.54;43.81;101395.03;5031696;28;20056;-74
2022/07/28 10:39:22;;;;;;;4.07;1.55;;;;;;;24.70;43.19;101396.75;5046655;28;20052;-75
2022/07/28 10:41:49;;;;;;;7.78;1.70;;;;;;;24.65;43.08;101392.53;5034942;28;20102;-76
2022/07/28 10:44:18;;;;;;;8.25;1.63;;;;;;;24.72;43.48;101397.06;5032197;28;20053;-69
2022/07/28 10:46:46;;;;;;;6.20;1.60;;;;;;;24.78;43.00;101395.16;5039556;28;20063;-71
2022/07/28 10:49:13;;;;;;;7.55;2.20;;;;;;;24.90;43.14;101391.28;5042127;28;20049;-72
2022/07/28 10:51:43;;;;;;;6.43;1.55;;;;;;;24.98;42.58;101395.38;5044590;28;20102;-70
2022/07/28 10:54:30;;;;;;;6.25;1.85;;;;;;;25.12;41.92;101380.50;5040165;28;20056;-72
2022/07/28 10:57:00;;;;;;;6.80;1.40;;;;;;;25.24;41.29;101378.69;5039930;28;20935;-74
2022/07/28 11:00:08;;;;;;;9.05;2.00;;;;;;;25.38;40.71;101378.78;5043682;28;20067;-76
2022/07/28 11:02:51;;;;;;;12.68;1.90;;;;;;;25.36;39.84;101369.16;5045127;28;20766;-74
2022/07/28 11:05:30;;;;;;;8.43;1.83;;;;;;;25.46;40.13;101371.47;5037449;28;20082;-72
2022/07/28 11:08:05;;;;;;;5.68;1.50;;;;;;;25.52;40.23;101377.22;5034985;28;20049;-74
2022/07/28 11:10:46;;;;;;;4.95;1.60;;;;;;;25.52;39.52;101363.06;5046401;28;20178;-72
2022/07/28 11:13:28;;;;;;;3.53;1.13;;;;;;;25.75;40.02;101365.06;5033771;28;20041;-71
2022/07/28 11:16:15;;;;;;;8.77;1.70;;;;;;;25.84;39.69;101370.63;5040816;28;20057;-74
2022/07/28 11:19:00;;;;;;;3.55;1.50;;;;;;;25.83;39.29;101374.75;5033455;28;20041;-73
2022/07/28 11:21:30;;;;;;;8.75;2.00;;;;;;;25.85;39.63;101363.72;5041529;28;20561;-72
2022/07/28 11:24:06;;;;;;;10.27;1.88;;;;;;;25.98;39.43;101358.59;5046473;28;20056;-71
2022/07/28 11:26:34;;;;;;;6.95;1.77;;;;;;;26.11;39.76;101347.69;5046649;28;20123;-73
2022/07/28 11:29:07;;;;;;;6.53;1.80;;;;;;;26.37;39.64;101348.66;5036250;28;20147;-71
2022/07/28 11:31:43;;;;;;;2.60;1.27;;;;;;;26.43;38.31;101343.88;5044186;28;20106;-73
2022/07/28 11:34:11;;;;;;;6.97;1.63;;;;;;;26.61;39.09;101349.34;5049320;28;20080;-70
2022/07/28 11:36:57;;;;;;;7.22;1.73;;;;;;;26.73;37.71;101348.25;5036058;28;20093;-72